sensor_id;sensor_type;location;lat;lon;timestamp;pressure;altitude;pressure_sealevel;temperature;humidity
60897;BME280;46749;32.932;-117.130;2023-03-04T00:02:03;101201.16;;;13.57;52.82
60897;BME280;46749;32.932;-117.130;2023-03-04T00:04:30;101204.66;;;13.57;52.79
60897;BME280;46749;32.932;-117.130;2023-03-04T00:06:56;101190.81;;;13.58;52.94
60897;BME280;46749;32.932;-117.130;2023-03-04T00:09:22;101201.25;;;13.58;52.89
60897;BME280;46749;32.932;-117.130;2023-03-04T00:11:49;101187.34;;;13.59;52.85
60897;BME280;46749;32.932;-117.130;2023-03-04T00:14:15;101190.88;;;13.61;52.73
60897;BME280;46749;32.932;-117.130;2023-03-04T00:16:41;101178.75;;;13.63;52.67
60897;BME280;46749;32.932;-117.130;2023-03-04T00:19:09;101185.78;;;13.64;52.66
60897;BME280;46749;32.932;-117.130;2023-03-04T00:21:35;101178.81;;;13.65;52.62
60897;BME280;46749;32.932;-117.130;2023-03-04T00:24:02;101174.53;;;13.67;52.65
60897;BME280;46749;32.932;-117.130;2023-03-04T00:26:28;101163.28;;;13.69;52.74
60897;BME280;46749;32.932;-117.130;2023-03-04T00:28:54;101160.75;;;13.71;52.77
60897;BME280;46749;32.932;-117.130;2023-03-04T00:31:20;101156.34;;;13.70;52.97
60897;BME280;46749;32.932;-117.130;2023-03-04T00:33:48;101159.00;;;13.71;53.06
60897;BME280;46749;32.932;-117.130;2023-03-04T00:36:14;101154.63;;;13.70;53.19
60897;BME280;46749;32.932;-117.130;2023-03-04T00:38:41;101158.16;;;13.72;53.15
60897;BME280;46749;32.932;-117.130;2023-03-04T00:41:07;101147.81;;;13.75;52.77
60897;BME280;46749;32.932;-117.130;2023-03-04T00:43:33;101150.50;;;13.77;53.16
60897;BME280;46749;32.932;-117.130;2023-03-04T00:45:59;101148.75;;;13.77;53.18
60897;BME280;46749;32.932;-117.130;2023-03-04T00:48:25;101139.16;;;13.76;53.30
60897;BME280;46749;32.932;-117.130;2023-03-04T00:50:52;101135.78;;;13.81;53.28
60897;BME280;46749;32.932;-117.130;2023-03-04T00:53:19;101138.63;;;13.88;53.38
60897;BME280;46749;32.932;-117.130;2023-03-04T00:55:45;101145.81;;;13.95;53.41
60897;BME280;46749;32.932;-117.130;2023-03-04T00:58:11;101147.66;;;13.99;53.44
60897;BME280;46749;32.932;-117.130;2023-03-04T01:00:38;101153.88;;;14.03;53.52
60897;BME280;46749;32.932;-117.130;2023-03-04T01:03:04;101157.41;;;14.05;53.39
60897;BME280;46749;32.932;-117.130;2023-03-04T01:05:30;101156.47;;;14.03;53.39
60897;BME280;46749;32.932;-117.130;2023-03-04T01:07:58;101160.00;;;14.05;53.50
60897;BME280;46749;32.932;-117.130;2023-03-04T01:10:25;101161.91;;;14.11;53.23
60897;BME280;46749;32.932;-117.130;2023-03-04T01:12:51;101148.03;;;14.13;53.42
60897;BME280;46749;32.932;-117.130;2023-03-04T01:15:17;101155.13;;;14.17;53.50
60897;BME280;46749;32.932;-117.130;2023-03-04T01:17:44;101149.06;;;14.18;53.87
60897;BME280;46749;32.932;-117.130;2023-03-04T01:20:11;101147.44;;;14.22;53.77
60897;BME280;46749;32.932;-117.130;2023-03-04T01:22:37;101152.78;;;14.26;53.18
60897;BME280;46749;32.932;-117.130;2023-03-04T01:25:04;101145.88;;;14.28;53.07
60897;BME280;46749;32.932;-117.130;2023-03-04T01:27:31;101152.03;;;14.30;53.23
60897;BME280;46749;32.932;-117.130;2023-03-04T01:29:57;101155.63;;;14.34;53.13
60897;BME280;46749;32.932;-117.130;2023-03-04T01:32:23;101159.16;;;14.36;53.01
60897;BME280;46749;32.932;-117.130;2023-03-04T01:34:50;101160.06;;;14.38;52.76
60897;BME280;46749;32.932;-117.130;2023-03-04T01:37:16;101154.06;;;14.41;52.99
60897;BME280;46749;32.932;-117.130;2023-03-04T01:39:42;101160.22;;;14.43;53.01
60897;BME280;46749;32.932;-117.130;2023-03-04T01:42:17;101163.72;;;14.45;52.73
60897;BME280;46749;32.932;-117.130;2023-03-04T01:44:45;101158.59;;;14.46;52.64
60897;BME280;46749;32.932;-117.130;2023-03-04T01:47:12;101148.34;;;14.54;52.81
60897;BME280;46749;32.932;-117.130;2023-03-04T01:49:39;101149.53;;;14.65;53.22
60897;BME280;46749;32.932;-117.130;2023-03-04T01:52:11;101138.47;;;14.77;53.25
60897;BME280;46749;32.932;-117.130;2023-03-04T01:54:37;101148.44;;;14.90;52.73
60897;BME280;46749;32.932;-117.130;2023-03-04T01:57:17;101153.06;;;15.02;52.79
60897;BME280;46749;32.932;-117.130;2023-03-04T01:59:45;101158.75;;;15.20;52.24
60897;BME280;46749;32.932;-117.130;2023-03-04T02:02:12;101166.75;;;15.26;52.09
60897;BME280;46749;32.932;-117.130;2023-03-04T02:04:40;101158.00;;;15.24;51.80
60897;BME280;46749;32.932;-117.130;2023-03-04T02:07:07;101157.94;;;15.21;52.10
60897;BME280;46749;32.932;-117.130;2023-03-04T02:09:34;101166.56;;;15.19;52.06
60897;BME280;46749;32.932;-117.130;2023-03-04T02:12:01;101163.94;;;15.17;52.08
60897;BME280;46749;32.932;-117.130;2023-03-04T02:14:27;101142.91;;;15.14;52.00
60897;BME280;46749;32.932;-117.130;2023-03-04T02:16:53;101140.22;;;15.09;51.92
60897;BME280;46749;32.932;-117.130;2023-03-04T02:22:36;101137.38;;;15.02;52.17
60897;BME280;46749;32.932;-117.130;2023-03-04T02:25:10;101142.53;;;14.99;52.15
60897;BME280;46749;32.932;-117.130;2023-03-04T02:27:38;101142.44;;;14.96;52.13
60897;BME280;46749;32.932;-117.130;2023-03-04T02:30:05;101139.81;;;14.94;52.16
60897;BME280;46749;32.932;-117.130;2023-03-04T02:32:31;101147.63;;;14.93;51.99
60897;BME280;46749;32.932;-117.130;2023-03-04T02:34:57;101144.97;;;14.91;51.99
60897;BME280;46749;32.932;-117.130;2023-03-04T02:37:24;101153.66;;;14.90;52.21
60897;BME280;46749;32.932;-117.130;2023-03-04T02:39:50;101151.00;;;14.89;52.01
60897;BME280;46749;32.932;-117.130;2023-03-04T02:42:16;101154.47;;;14.88;52.17
60897;BME280;46749;32.932;-117.130;2023-03-04T02:44:44;101157.97;;;14.88;52.04
60897;BME280;46749;32.932;-117.130;2023-03-04T02:47:15;101157.94;;;14.87;52.07
60897;BME280;46749;32.932;-117.130;2023-03-04T02:49:44;101163.16;;;14.87;52.05
60897;BME280;46749;32.932;-117.130;2023-03-04T02:52:20;101170.13;;;14.86;52.03
60897;BME280;46749;32.932;-117.130;2023-03-04T02:54:47;101170.09;;;14.84;52.08
60897;BME280;46749;32.932;-117.130;2023-03-04T02:57:14;101177.13;;;14.87;51.86
60897;BME280;46749;32.932;-117.130;2023-03-04T02:59:41;101170.97;;;14.85;52.01
60897;BME280;46749;32.932;-117.130;2023-03-04T03:02:07;101170.94;;;14.83;51.92
60897;BME280;46749;32.932;-117.130;2023-03-04T03:04:35;101174.38;;;14.82;51.90
60897;BME280;46749;32.932;-117.130;2023-03-04T03:07:02;101183.06;;;14.81;51.67
60897;BME280;46749;32.932;-117.130;2023-03-04T03:09:29;101179.56;;;14.81;51.88
60897;BME280;46749;32.932;-117.130;2023-03-04T03:11:55;101168.22;;;14.80;51.87
60897;BME280;46749;32.932;-117.130;2023-03-04T03:14:21;101168.22;;;14.80;51.87
60897;BME280;46749;32.932;-117.130;2023-03-04T03:16:47;101169.94;;;14.78;52.17
60897;BME280;46749;32.932;-117.130;2023-03-04T03:19:14;101183.84;;;14.77;52.04
60897;BME280;46749;32.932;-117.130;2023-03-04T03:21:40;101182.06;;;14.76;51.89
60897;BME280;46749;32.932;-117.130;2023-03-04T03:24:06;101169.81;;;14.75;51.98
60897;BME280;46749;32.932;-117.130;2023-03-04T03:26:33;101170.72;;;14.76;51.84
60897;BME280;46749;32.932;-117.130;2023-03-04T03:28:59;101173.28;;;14.74;51.94
60897;BME280;46749;32.932;-117.130;2023-03-04T03:31:25;101175.91;;;14.74;51.70
60897;BME280;46749;32.932;-117.130;2023-03-04T03:33:51;101172.38;;;14.72;51.85
60897;BME280;46749;32.932;-117.130;2023-03-04T03:36:18;101166.19;;;14.70;51.73
60897;BME280;46749;32.932;-117.130;2023-03-04T03:38:44;101166.19;;;14.70;51.84
60897;BME280;46749;32.932;-117.130;2023-03-04T03:41:11;101168.81;;;14.70;51.84
60897;BME280;46749;32.932;-117.130;2023-03-04T03:43:37;101161.78;;;14.68;51.79
60897;BME280;46749;32.932;-117.130;2023-03-04T03:46:04;101166.13;;;14.67;51.74
60897;BME280;46749;32.932;-117.130;2023-03-04T03:48:30;101174.81;;;14.66;51.82
60897;BME280;46749;32.932;-117.130;2023-03-04T03:50:56;101171.25;;;14.64;51.73
60897;BME280;46749;32.932;-117.130;2023-03-04T03:53:22;101169.50;;;14.63;51.75
60897;BME280;46749;32.932;-117.130;2023-03-04T03:55:48;101178.19;;;14.62;51.74
60897;BME280;46749;32.932;-117.130;2023-03-04T03:58:15;101176.44;;;14.61;51.92
60897;BME280;46749;32.932;-117.130;2023-03-04T04:00:41;101166.81;;;14.60;51.91
60897;BME280;46749;32.932;-117.130;2023-03-04T04:03:11;101158.94;;;14.59;51.67
60897;BME280;46749;32.932;-117.130;2023-03-04T04:05:39;101165.88;;;14.58;51.89
60897;BME280;46749;32.932;-117.130;2023-03-04T04:08:05;101169.34;;;14.57;51.79
60897;BME280;46749;32.932;-117.130;2023-03-04T04:10:31;101156.34;;;14.59;51.82
60897;BME280;46749;32.932;-117.130;2023-03-04T04:12:57;101153.75;;;14.60;52.02
60897;BME280;46749;32.932;-117.130;2023-03-04T04:15:24;101152.06;;;14.62;51.85
60897;BME280;46749;32.932;-117.130;2023-03-04T04:17:50;101146.81;;;14.62;51.78
60897;BME280;46749;32.932;-117.130;2023-03-04T04:20:16;101152.16;;;14.65;51.82
60897;BME280;46749;32.932;-117.130;2023-03-04T04:22:42;101155.69;;;14.67;52.04
60897;BME280;46749;32.932;-117.130;2023-03-04T04:25:09;101148.75;;;14.69;51.77
60897;BME280;46749;32.932;-117.130;2023-03-04T04:27:35;101148.84;;;14.72;51.76
60897;BME280;46749;32.932;-117.130;2023-03-04T04:30:03;101153.22;;;14.73;52.02
60897;BME280;46749;32.932;-117.130;2023-03-04T04:32:30;101154.13;;;14.75;51.99
60897;BME280;46749;32.932;-117.130;2023-03-04T04:34:56;101143.69;;;14.75;51.92
60897;BME280;46749;32.932;-117.130;2023-03-04T04:37:22;101142.00;;;14.77;51.86
60897;BME280;46749;32.932;-117.130;2023-03-04T04:39:48;101133.31;;;14.78;51.88
60897;BME280;46749;32.932;-117.130;2023-03-04T04:42:16;101128.97;;;14.79;51.76
60897;BME280;46749;32.932;-117.130;2023-03-04T04:44:42;101134.19;;;14.79;51.94
60897;BME280;46749;32.932;-117.130;2023-03-04T04:47:09;101129.75;;;14.76;51.87
60897;BME280;46749;32.932;-117.130;2023-03-04T04:49:35;101123.66;;;14.76;51.90
60897;BME280;46749;32.932;-117.130;2023-03-04T04:52:01;101123.59;;;14.73;51.84
60897;BME280;46749;32.932;-117.130;2023-03-04T04:54:27;101128.78;;;14.71;51.69
60897;BME280;46749;32.932;-117.130;2023-03-04T04:56:54;101134.78;;;14.69;51.83
60897;BME280;46749;32.932;-117.130;2023-03-04T04:59:20;101119.97;;;14.68;51.75
60897;BME280;46749;32.932;-117.130;2023-03-04T05:01:47;101119.06;;;14.67;51.82
60897;BME280;46749;32.932;-117.130;2023-03-04T05:04:13;101131.28;;;14.67;51.89
60897;BME280;46749;32.932;-117.130;2023-03-04T05:06:39;101122.53;;;14.66;52.16
60897;BME280;46749;32.932;-117.130;2023-03-04T05:09:05;101113.75;;;14.64;52.08
60897;BME280;46749;32.932;-117.130;2023-03-04T05:11:32;101122.44;;;14.63;52.24
60897;BME280;46749;32.932;-117.130;2023-03-04T05:13:58;101132.03;;;14.63;52.13
60897;BME280;46749;32.932;-117.130;2023-03-04T05:16:24;101139.84;;;14.61;52.15
60897;BME280;46749;32.932;-117.130;2023-03-04T05:18:50;101131.97;;;14.60;52.10
60897;BME280;46749;32.932;-117.130;2023-03-04T05:21:17;101137.13;;;14.58;51.95
60897;BME280;46749;32.932;-117.130;2023-03-04T05:23:43;101140.59;;;14.57;51.95
60897;BME280;46749;32.932;-117.130;2023-03-04T05:26:14;101130.97;;;14.56;51.89
60897;BME280;46749;32.932;-117.130;2023-03-04T05:28:40;101130.06;;;14.54;51.95
60897;BME280;46749;32.932;-117.130;2023-03-04T05:31:07;101138.75;;;14.53;51.87
60897;BME280;46749;32.932;-117.130;2023-03-04T05:33:33;101140.47;;;14.52;51.97
60897;BME280;46749;32.932;-117.130;2023-03-04T05:36:01;101143.03;;;14.51;51.78
60897;BME280;46749;32.932;-117.130;2023-03-04T05:38:27;101134.28;;;14.49;51.90
60897;BME280;46749;32.932;-117.130;2023-03-04T05:40:59;101139.50;;;14.49;51.93
60897;BME280;46749;32.932;-117.130;2023-03-04T05:43:26;101130.75;;;14.47;51.88
60897;BME280;46749;32.932;-117.130;2023-03-04T05:45:53;101128.94;;;14.46;51.71
60897;BME280;46749;32.932;-117.130;2023-03-04T05:48:20;101119.41;;;14.46;51.81
60897;BME280;46749;32.932;-117.130;2023-03-04T05:50:46;101119.31;;;14.45;51.90
60897;BME280;46749;32.932;-117.130;2023-03-04T05:53:17;101124.50;;;14.43;51.88
60897;BME280;46749;32.932;-117.130;2023-03-04T05:55:45;101126.25;;;14.44;51.88
60897;BME280;46749;32.932;-117.130;2023-03-04T05:58:12;101121.03;;;14.44;51.79
60897;BME280;46749;32.932;-117.130;2023-03-04T06:00:39;101116.66;;;14.43;51.96
60897;BME280;46749;32.932;-117.130;2023-03-04T06:03:05;101102.72;;;14.43;51.96
60897;BME280;46749;32.932;-117.130;2023-03-04T06:05:31;101103.56;;;14.42;52.11
60897;BME280;46749;32.932;-117.130;2023-03-04T06:07:57;101104.41;;;14.41;52.24
60897;BME280;46749;32.932;-117.130;2023-03-04T06:10:24;101109.56;;;14.39;52.06
60897;BME280;46749;32.932;-117.130;2023-03-04T06:13:10;101110.50;;;14.40;52.05
60897;BME280;46749;32.932;-117.130;2023-03-04T06:15:37;101113.03;;;14.38;51.76
60897;BME280;46749;32.932;-117.130;2023-03-04T06:18:04;101113.00;;;14.37;52.16
60897;BME280;46749;32.932;-117.130;2023-03-04T06:20:31;101116.47;;;14.36;52.37
60897;BME280;46749;32.932;-117.130;2023-03-04T06:22:57;101130.38;;;14.35;51.94
60897;BME280;46749;32.932;-117.130;2023-03-04T06:25:24;101119.91;;;14.35;52.11
60897;BME280;46749;32.932;-117.130;2023-03-04T06:27:50;101113.84;;;14.36;52.11
60897;BME280;46749;32.932;-117.130;2023-03-04T06:30:17;101105.13;;;14.35;51.99
60897;BME280;46749;32.932;-117.130;2023-03-04T06:32:44;101087.69;;;14.34;52.07
60897;BME280;46749;32.932;-117.130;2023-03-04T06:35:11;101088.56;;;14.35;52.07
60897;BME280;46749;32.932;-117.130;2023-03-04T06:37:37;101090.31;;;14.34;52.28
60897;BME280;46749;32.932;-117.130;2023-03-04T06:40:04;101086.81;;;14.34;52.17
60897;BME280;46749;32.932;-117.130;2023-03-04T06:42:30;101084.97;;;14.31;52.10
60897;BME280;46749;32.932;-117.130;2023-03-04T06:44:56;101077.13;;;14.31;51.91
60897;BME280;46749;32.932;-117.130;2023-03-04T06:47:23;101097.16;;;14.30;52.25
60897;BME280;46749;32.932;-117.130;2023-03-04T06:49:49;101104.97;;;14.29;52.18
60897;BME280;46749;32.932;-117.130;2023-03-04T06:52:15;101099.75;;;14.29;52.08
60897;BME280;46749;32.932;-117.130;2023-03-04T06:54:41;101104.97;;;14.29;52.02
60897;BME280;46749;32.932;-117.130;2023-03-04T06:57:08;101102.31;;;14.27;52.17
60897;BME280;46749;32.932;-117.130;2023-03-04T06:59:34;101104.06;;;14.28;52.25
60897;BME280;46749;32.932;-117.130;2023-03-04T07:02:00;101097.97;;;14.28;52.11
60897;BME280;46749;32.932;-117.130;2023-03-04T07:04:26;101097.91;;;14.26;52.01
60897;BME280;46749;32.932;-117.130;2023-03-04T07:06:53;101097.91;;;14.26;52.30
60897;BME280;46749;32.932;-117.130;2023-03-04T07:09:19;101090.91;;;14.25;52.09
60897;BME280;46749;32.932;-117.130;2023-03-04T07:11:45;101103.09;;;14.25;52.21
60897;BME280;46749;32.932;-117.130;2023-03-04T07:14:11;101083.91;;;14.23;52.20
60897;BME280;46749;32.932;-117.130;2023-03-04T07:16:37;101089.13;;;14.23;52.36
60897;BME280;46749;32.932;-117.130;2023-03-04T07:19:04;101082.13;;;14.22;52.46
60897;BME280;46749;32.932;-117.130;2023-03-04T07:21:30;101097.81;;;14.22;52.22
60897;BME280;46749;32.932;-117.130;2023-03-04T07:23:56;101096.03;;;14.21;52.20
60897;BME280;46749;32.932;-117.130;2023-03-04T07:26:22;101091.69;;;14.21;52.26
60897;BME280;46749;32.932;-117.130;2023-03-04T07:28:49;101088.25;;;14.22;52.00
60897;BME280;46749;32.932;-117.130;2023-03-04T07:31:24;101089.97;;;14.22;52.22
60897;BME280;46749;32.932;-117.130;2023-03-04T07:33:56;101081.25;;;14.21;52.19
60897;BME280;46749;32.932;-117.130;2023-03-04T07:36:22;101081.25;;;14.21;52.08
60897;BME280;46749;32.932;-117.130;2023-03-04T07:38:49;101075.97;;;14.20;52.45
60897;BME280;46749;32.932;-117.130;2023-03-04T07:41:16;101074.16;;;14.17;52.53
60897;BME280;46749;32.932;-117.130;2023-03-04T07:43:43;101084.59;;;14.17;52.17
60897;BME280;46749;32.932;-117.130;2023-03-04T07:46:10;101087.22;;;14.17;52.46
60897;BME280;46749;32.932;-117.130;2023-03-04T07:48:37;101086.31;;;14.15;52.23
60897;BME280;46749;32.932;-117.130;2023-03-04T07:51:11;101092.41;;;14.16;52.46
60897;BME280;46749;32.932;-117.130;2023-03-04T07:53:40;101084.59;;;14.17;52.43
60897;BME280;46749;32.932;-117.130;2023-03-04T07:56:11;101079.38;;;14.17;52.23
60897;BME280;46749;32.932;-117.130;2023-03-04T07:58:37;101064.56;;;14.16;52.20
60897;BME280;46749;32.932;-117.130;2023-03-04T08:01:18;101070.66;;;14.17;52.34
60897;BME280;46749;32.932;-117.130;2023-03-04T08:03:44;101068.91;;;14.16;52.31
60897;BME280;46749;32.932;-117.130;2023-03-04T08:06:13;101063.56;;;14.13;52.34
60897;BME280;46749;32.932;-117.130;2023-03-04T08:08:40;101071.41;;;14.13;52.28
60897;BME280;46749;32.932;-117.130;2023-03-04T08:11:10;101070.53;;;14.12;52.21
60897;BME280;46749;32.932;-117.130;2023-03-04T08:13:36;101062.69;;;14.12;52.34
60897;BME280;46749;32.932;-117.130;2023-03-04T08:16:03;101063.53;;;14.11;52.25
60897;BME280;46749;32.932;-117.130;2023-03-04T08:18:30;101059.19;;;14.12;52.37
60897;BME280;46749;32.932;-117.130;2023-03-04T08:20:56;101059.25;;;14.13;52.15
60897;BME280;46749;32.932;-117.130;2023-03-04T08:23:23;101067.91;;;14.12;52.41
60897;BME280;46749;32.932;-117.130;2023-03-04T08:25:50;101073.16;;;14.12;52.34
60897;BME280;46749;32.932;-117.130;2023-03-04T08:28:16;101057.44;;;14.11;52.36
60897;BME280;46749;32.932;-117.130;2023-03-04T08:30:43;101052.22;;;14.11;52.38
60897;BME280;46749;32.932;-117.130;2023-03-04T08:33:09;101058.31;;;14.11;52.21
60897;BME280;46749;32.932;-117.130;2023-03-04T08:35:37;101065.25;;;14.09;52.15
60897;BME280;46749;32.932;-117.130;2023-03-04T08:38:04;101064.34;;;14.09;52.26
60897;BME280;46749;32.932;-117.130;2023-03-04T08:40:31;101051.31;;;14.09;52.28
60897;BME280;46749;32.932;-117.130;2023-03-04T08:42:57;101045.22;;;14.10;52.21
60897;BME280;46749;32.932;-117.130;2023-03-04T08:45:23;101046.09;;;14.10;52.34
60897;BME280;46749;32.932;-117.130;2023-03-04T08:47:51;101049.56;;;14.09;52.26
60897;BME280;46749;32.932;-117.130;2023-03-04T08:50:17;101060.91;;;14.10;52.26
60897;BME280;46749;32.932;-117.130;2023-03-04T08:52:43;101065.16;;;14.08;52.18
60897;BME280;46749;32.932;-117.130;2023-03-04T08:55:09;101066.03;;;14.07;52.19
60897;BME280;46749;32.932;-117.130;2023-03-04T08:57:35;101057.31;;;14.06;52.25
60897;BME280;46749;32.932;-117.130;2023-03-04T09:00:02;101052.97;;;14.07;52.10
60897;BME280;46749;32.932;-117.130;2023-03-04T09:02:29;101054.69;;;14.06;52.27
60897;BME280;46749;32.932;-117.130;2023-03-04T09:04:55;101059.94;;;14.08;52.23
60897;BME280;46749;32.932;-117.130;2023-03-04T09:07:22;101051.22;;;14.07;52.00
60897;BME280;46749;32.932;-117.130;2023-03-04T09:09:49;101051.22;;;14.07;52.20
60897;BME280;46749;32.932;-117.130;2023-03-04T09:12:15;101055.56;;;14.07;52.22
60897;BME280;46749;32.932;-117.130;2023-03-04T09:14:41;101065.13;;;14.06;52.11
60897;BME280;46749;32.932;-117.130;2023-03-04T09:17:07;101073.81;;;14.05;52.20
60897;BME280;46749;32.932;-117.130;2023-03-04T09:19:34;101068.56;;;14.03;51.94
60897;BME280;46749;32.932;-117.130;2023-03-04T09:22:00;101059.84;;;14.03;52.11
60897;BME280;46749;32.932;-117.130;2023-03-04T09:24:27;101050.28;;;14.03;52.06
60897;BME280;46749;32.932;-117.130;2023-03-04T09:26:53;101043.34;;;14.04;52.30
60897;BME280;46749;32.932;-117.130;2023-03-04T09:29:20;101039.00;;;14.04;52.12
60897;BME280;46749;32.932;-117.130;2023-03-04T09:31:47;101040.75;;;14.06;51.98
60897;BME280;46749;32.932;-117.130;2023-03-04T09:34:13;101039.88;;;14.05;52.08
60897;BME280;46749;32.932;-117.130;2023-03-04T09:36:39;101036.34;;;14.03;52.12
60897;BME280;46749;32.932;-117.130;2023-03-04T09:39:06;101037.19;;;14.02;51.80
60897;BME280;46749;32.932;-117.130;2023-03-04T09:41:42;101032.78;;;14.01;52.07
60897;BME280;46749;32.932;-117.130;2023-03-04T09:44:21;101029.34;;;14.02;52.23
60897;BME280;46749;32.932;-117.130;2023-03-04T09:46:49;101023.22;;;14.01;52.19
60897;BME280;46749;32.932;-117.130;2023-03-04T09:49:17;101027.63;;;14.02;52.10
60897;BME280;46749;32.932;-117.130;2023-03-04T09:52:09;101025.03;;;14.02;51.99
60897;BME280;46749;32.932;-117.130;2023-03-04T09:54:58;101030.25;;;14.02;52.03
60897;BME280;46749;32.932;-117.130;2023-03-04T09:57:35;101018.91;;;14.02;52.06
60897;BME280;46749;32.932;-117.130;2023-03-04T10:05:24;100989.22;;;13.98;52.09
60897;BME280;46749;32.932;-117.130;2023-03-04T10:08:06;100981.38;;;13.98;52.28
60897;BME280;46749;32.932;-117.130;2023-03-04T10:10:38;101000.56;;;14.00;52.19
60897;BME280;46749;32.932;-117.130;2023-03-04T10:13:17;100995.31;;;13.99;52.10
60897;BME280;46749;32.932;-117.130;2023-03-04T10:15:48;100997.06;;;14.00;52.24
60897;BME280;46749;32.932;-117.130;2023-03-04T10:18:40;100980.50;;;13.98;52.30
60897;BME280;46749;32.932;-117.130;2023-03-04T10:21:18;100985.72;;;13.98;52.12
60897;BME280;46749;32.932;-117.130;2023-03-04T10:23:45;100990.91;;;13.96;52.10
60897;BME280;46749;32.932;-117.130;2023-03-04T10:26:17;100983.00;;;13.95;52.14
60897;BME280;46749;32.932;-117.130;2023-03-04T10:28:46;100987.41;;;13.96;52.19
60897;BME280;46749;32.932;-117.130;2023-03-04T10:31:30;100987.44;;;13.97;51.94
60897;BME280;46749;32.932;-117.130;2023-03-04T10:33:58;100985.72;;;13.98;52.10
60897;BME280;46749;32.932;-117.130;2023-03-04T10:39:18;100973.50;;;13.97;52.37
60897;BME280;46749;32.932;-117.130;2023-03-04T10:41:57;100990.03;;;13.96;52.10
60897;BME280;46749;32.932;-117.130;2023-03-04T10:44:25;100992.63;;;13.96;52.03
60897;BME280;46749;32.932;-117.130;2023-03-04T10:46:53;100985.63;;;13.95;52.22
60897;BME280;46749;32.932;-117.130;2023-03-04T10:49:21;101009.13;;;13.95;52.12
60897;BME280;46749;32.932;-117.130;2023-03-04T10:54:47;100983.00;;;13.95;52.18
60897;BME280;46749;32.932;-117.130;2023-03-04T10:57:20;100966.53;;;13.96;52.39
60897;BME280;46749;32.932;-117.130;2023-03-04T11:00:03;100966.47;;;13.94;52.13
60897;BME280;46749;32.932;-117.130;2023-03-04T11:02:47;100976.91;;;13.94;52.15
60897;BME280;46749;32.932;-117.130;2023-03-04T11:07:43;100972.50;;;13.92;52.15
60897;BME280;46749;32.932;-117.130;2023-03-04T11:10:20;100976.88;;;13.93;52.22
60897;BME280;46749;32.932;-117.130;2023-03-04T11:15:26;100957.75;;;13.94;52.12
60897;BME280;46749;32.932;-117.130;2023-03-04T11:18:05;100955.13;;;13.94;52.09
60897;BME280;46749;32.932;-117.130;2023-03-04T11:20:35;100949.91;;;13.94;52.25
60897;BME280;46749;32.932;-117.130;2023-03-04T11:25:41;100957.72;;;13.92;52.33
60897;BME280;46749;32.932;-117.130;2023-03-04T11:28:21;100961.13;;;13.90;52.17
60897;BME280;46749;32.932;-117.130;2023-03-04T11:30:54;100955.03;;;13.89;52.28
60897;BME280;46749;32.932;-117.130;2023-03-04T11:33:30;100956.72;;;13.89;52.14
60897;BME280;46749;32.932;-117.130;2023-03-04T11:38:49;100943.63;;;13.87;52.08
60897;BME280;46749;32.932;-117.130;2023-03-04T11:41:24;100927.97;;;13.87;52.16
60897;BME280;46749;32.932;-117.130;2023-03-04T11:43:55;100938.38;;;13.86;51.88
60897;BME280;46749;32.932;-117.130;2023-03-04T11:52:21;100946.13;;;13.83;52.02
60897;BME280;46749;32.932;-117.130;2023-03-04T11:55:37;100943.50;;;13.83;52.08
60897;BME280;46749;32.932;-117.130;2023-03-04T11:58:22;100940.91;;;13.83;51.96
60897;BME280;46749;32.932;-117.130;2023-03-04T12:09:08;100934.69;;;13.77;52.09
60897;BME280;46749;32.932;-117.130;2023-03-04T12:28:22;100925.00;;;13.73;51.97
60897;BME280;46749;32.932;-117.130;2023-03-04T12:44:20;100917.13;;;13.70;52.00
60897;BME280;46749;32.932;-117.130;2023-03-04T12:52:37;100910.94;;;13.68;52.06
60897;BME280;46749;32.932;-117.130;2023-03-04T12:55:11;100925.72;;;13.68;52.07
60897;BME280;46749;32.932;-117.130;2023-03-04T12:57:40;100932.69;;;13.67;52.12
60897;BME280;46749;32.932;-117.130;2023-03-04T13:17:00;100903.84;;;13.63;51.88
60897;BME280;46749;32.932;-117.130;2023-03-04T13:22:29;100882.03;;;13.61;52.16
60897;BME280;46749;32.932;-117.130;2023-03-04T13:24:59;100881.16;;;13.60;51.97
60897;BME280;46749;32.932;-117.130;2023-03-04T13:27:46;100880.28;;;13.60;51.90
60897;BME280;46749;32.932;-117.130;2023-03-04T13:38:22;100865.41;;;13.57;51.85
60897;BME280;46749;32.932;-117.130;2023-03-04T13:41:23;100863.72;;;13.58;51.95
60897;BME280;46749;32.932;-117.130;2023-03-04T13:43:54;100866.34;;;13.59;51.91
60897;BME280;46749;32.932;-117.130;2023-03-04T13:51:33;100869.81;;;13.58;52.05
60897;BME280;46749;32.932;-117.130;2023-03-04T13:54:30;100864.59;;;13.58;52.10
60897;BME280;46749;32.932;-117.130;2023-03-04T13:59:32;100860.19;;;13.57;52.02
60897;BME280;46749;32.932;-117.130;2023-03-04T14:02:21;100848.84;;;13.55;52.02
60897;BME280;46749;32.932;-117.130;2023-03-04T14:07:36;100841.88;;;13.56;51.95
60897;BME280;46749;32.932;-117.130;2023-03-04T14:12:44;100833.16;;;13.54;51.74
60897;BME280;46749;32.932;-117.130;2023-03-04T14:15:24;100826.16;;;13.53;52.05
60897;BME280;46749;32.932;-117.130;2023-03-04T14:18:01;100827.00;;;13.52;52.18
60897;BME280;46749;32.932;-117.130;2023-03-04T14:20:30;100844.38;;;13.51;52.15
60897;BME280;46749;32.932;-117.130;2023-03-04T14:22:59;100858.25;;;13.50;52.22
60897;BME280;46749;32.932;-117.130;2023-03-04T14:25:33;100866.09;;;13.50;51.88